Time;durP1;ratioP1;P1;durP2;ratioP2;P2;SDS_P1;SDS_P2;PMS_P1;PMS_P2;Temp;Humidity;BMP_temperature;BMP_pressure;BME280_temperature;BME280_humidity;BME280_pressure;Samples;Min_cycle;Max_cycle;Signal;HPM_P1;HPM_P2
2024/01/03 00:00:43;;;;;;;;;;;;;;;4.88;72.38;99386.19;5095122;28;19912;-81
2024/01/03 00:03:09;;;;;;;;;;;;;;;4.85;72.62;99389.91;5094954;28;20282;-81
2024/01/03 00:05:36;;;;;;;;;;;;;;;4.81;72.49;99382.50;5095020;28;19934;-81
2024/01/03 00:08:01;;;;;;;;;;;;;;;4.79;72.43;99382.66;5095053;28;20312;-81
2024/01/03 00:10:26;;;;;;;;;;;;;;;4.79;72.49;99378.22;5095615;28;19913;-81
2024/01/03 00:12:52;;;;;;;;;;;;;;;4.85;72.70;99376.84;5095876;28;20016;-81
2024/01/03 00:15:35;;;;;;;;;;;;;;;4.78;72.15;99367.91;5096357;28;19916;-81
2024/01/03 00:18:04;;;;;;;;;;;;;;;4.75;72.28;99369.03;5097766;28;19912;-81
2024/01/03 00:20:30;;;;;;;;;;;;;;;4.72;72.47;99361.47;5098349;28;19912;-81
2024/01/03 00:22:55;;;;;;;;;;;;;;;4.66;72.30;99361.22;5098247;28;20038;-81
2024/01/03 00:25:26;;;;;;;;;;;;;;;4.64;72.70;99357.94;5097243;28;19912;-81
2024/01/03 00:27:51;;;;;;;;;;;;;;;4.56;72.47;99350.81;5098607;28;19950;-81
2024/01/03 00:30:16;;;;;;;;;;;;;;;4.50;72.68;99353.19;5096819;28;20420;-80
2024/01/03 00:32:42;;;;;;;;;;;;;;;4.44;72.78;99342.31;5098247;28;19968;-81
2024/01/03 00:35:08;;;;;;;;;;;;;;;4.39;72.71;99346.31;5097215;28;19967;-81
2024/01/03 00:37:34;;;;;;;;;;;;;;;4.35;73.03;99345.78;5095784;28;20453;-81
2024/01/03 00:40:02;;;;;;;;;;;;;;;4.34;72.95;99344.13;5094567;28;19998;-82
2024/01/03 00:42:28;;;;;;;;;;;;;;;4.29;72.90;99337.69;5096072;28;19920;-81
2024/01/03 00:44:53;;;;;;;;;;;;;;;4.25;73.24;99334.53;5098400;28;20358;-81
2024/01/03 00:47:19;;;;;;;;;;;;;;;4.26;73.04;99335.38;5097005;28;20359;-81
2024/01/03 00:49:45;;;;;;;;;;;;;;;4.26;73.41;99333.56;5098449;28;19908;-81
2024/01/03 00:52:11;;;;;;;;;;;;;;;4.25;73.35;99328.50;5097890;28;19942;-81
2024/01/03 00:54:37;;;;;;;;;;;;;;;4.27;73.21;99335.22;5097618;28;19958;-81
2024/01/03 00:57:04;;;;;;;;;;;;;;;4.29;73.20;99338.50;5096808;28;19995;-81
2024/01/03 00:59:32;;;;;;;;;;;;;;;4.27;73.53;99343.06;5097810;28;20417;-81
2024/01/03 01:01:58;;;;;;;;;;;;;;;4.22;73.42;99340.06;5097910;28;19916;-81
2024/01/03 01:04:23;;;;;;;;;;;;;;;4.24;73.58;99342.53;5096813;28;19934;-81
2024/01/03 01:06:49;;;;;;;;;;;;;;;4.24;73.82;99342.53;5096021;28;19928;-81
2024/01/03 01:09:14;;;;;;;;;;;;;;;4.29;73.79;99337.69;5096805;28;19911;-81
2024/01/03 01:11:39;;;;;;;;;;;;;;;4.33;73.82;99339.88;5097169;28;19916;-81
2024/01/03 01:14:05;;;;;;;;;;;;;;;4.36;73.75;99333.53;5096901;28;19916;-81
2024/01/03 01:16:30;;;;;;;;;;;;;;;4.39;73.57;99323.63;5095771;28;19912;-81
2024/01/03 01:18:55;;;;;;;;;;;;;;;4.43;73.64;99326.78;5097131;28;19964;-81
2024/01/03 01:21:20;;;;;;;;;;;;;;;4.47;73.13;99328.16;5095583;28;19939;-81
2024/01/03 01:23:46;;;;;;;;;;;;;;;4.48;72.90;99319.34;5097754;28;19919;-81
2024/01/03 01:26:11;;;;;;;;;;;;;;;4.47;73.09;99321.13;5096920;28;19912;-81
2024/01/03 01:28:37;;;;;;;;;;;;;;;4.49;73.08;99320.16;5096713;28;19999;-81
2024/01/03 01:31:02;;;;;;;;;;;;;;;4.47;73.02;99322.94;5096463;28;20446;-81
2024/01/03 01:33:28;;;;;;;;;;;;;;;4.49;73.29;99320.16;5096760;28;19930;-81
2024/01/03 01:35:53;;;;;;;;;;;;;;;4.51;72.97;99318.22;5097755;28;19912;-81
2024/01/03 01:38:18;;;;;;;;;;;;;;;4.52;73.33;99318.09;5096692;28;19912;-81
2024/01/03 01:40:48;;;;;;;;;;;;;;;4.52;73.31;99318.09;5096409;28;19935;-81
2024/01/03 01:43:13;;;;;;;;;;;;;;;4.52;73.63;99314.66;5096960;28;20466;-81
2024/01/03 01:45:38;;;;;;;;;;;;;;;4.52;73.38;99322.50;5096837;28;19905;-81
2024/01/03 01:48:04;;;;;;;;;;;;;;;4.51;73.53;99323.47;5097160;28;19965;-81
2024/01/03 01:50:29;;;;;;;;;;;;;;;4.54;73.71;99328.41;5097286;28;20333;-80
2024/01/03 01:52:55;;;;;;;;;;;;;;;4.55;73.51;99316.97;5097430;28;19912;-80
2024/01/03 01:55:21;;;;;;;;;;;;;;;4.54;73.62;99323.19;5097557;28;19955;-81
2024/01/03 01:57:46;;;;;;;;;;;;;;;4.50;74.17;99309.56;5096723;28;19919;-81
2024/01/03 02:00:12;;;;;;;;;;;;;;;4.48;74.20;99311.50;5095574;28;19919;-81
2024/01/03 02:02:38;;;;;;;;;;;;;;;4.46;74.21;99311.66;5095153;28;19912;-81
2024/01/03 02:05:04;;;;;;;;;;;;;;;4.48;74.01;99298.44;5096358;28;20000;-81
2024/01/03 02:07:30;;;;;;;;;;;;;;;4.45;74.10;99302.13;5095485;28;19959;-81
2024/01/03 02:09:55;;;;;;;;;;;;;;;4.44;74.20;99304.88;5095567;28;19948;-81
2024/01/03 02:12:27;;;;;;;;;;;;;;;4.45;74.29;99309.16;5096879;28;19912;-81
2024/01/03 02:14:52;;;;;;;;;;;;;;;4.48;74.15;99301.06;5095941;28;20313;-81
2024/01/03 02:17:17;;;;;;;;;;;;;;;4.47;74.05;99302.84;5094917;28;19919;-81
2024/01/03 02:19:43;;;;;;;;;;;;;;;4.51;73.97;99319.06;5096367;28;19944;-81
2024/01/03 02:22:08;;;;;;;;;;;;;;;4.52;74.20;99314.66;5096537;28;19941;-81
2024/01/03 02:24:33;;;;;;;;;;;;;;;4.53;73.49;99324.16;5096866;28;19919;-81
2024/01/03 02:26:59;;;;;;;;;;;;;;;4.47;74.47;99323.75;5095849;28;19919;-81
2024/01/03 02:29:24;;;;;;;;;;;;;;;4.50;74.51;99325.25;5097525;28;19916;-81
2024/01/03 02:31:49;;;;;;;;;;;;;;;4.51;74.93;99329.50;5100583;28;19938;-82
2024/01/03 02:34:14;;;;;;;;;;;;;;;4.54;74.44;99334.47;5100769;28;19963;-81
2024/01/03 02:36:40;;;;;;;;;;;;;;;4.55;74.58;99336.09;5101714;28;19916;-81
2024/01/03 02:39:05;;;;;;;;;;;;;;;4.51;74.94;99329.50;5101453;28;19919;-81
2024/01/03 02:41:30;;;;;;;;;;;;;;;4.47;75.57;99321.13;5099504;28;19912;-81
2024/01/03 02:43:56;;;;;;;;;;;;;;;4.50;75.71;99327.03;5100605;28;19918;-81
2024/01/03 02:46:21;;;;;;;;;;;;;;;4.50;75.89;99320.03;5100179;28;19912;-81
2024/01/03 02:48:46;;;;;;;;;;;;;;;4.50;75.94;99313.97;5100139;28;20347;-81
2024/01/03 02:51:21;;;;;;;;;;;;;;;4.55;75.74;99312.56;5098992;28;19955;-81
2024/01/03 02:53:47;;;;;;;;;;;;;;;4.63;75.64;99312.66;5100099;28;19942;-81
2024/01/03 02:56:13;;;;;;;;;;;;;;;4.66;75.45;99308.94;5098863;28;19916;-81
2024/01/03 02:58:38;;;;;;;;;;;;;;;4.61;75.89;99312.00;5100627;28;19910;-81
2024/01/03 03:01:06;;;;;;;;;;;;;;;4.58;76.31;99309.66;5099368;28;20355;-81
2024/01/03 03:03:32;;;;;;;;;;;;;;;4.64;75.22;99305.66;5097498;28;20392;-81
2024/01/03 03:05:57;;;;;;;;;;;;;;;4.66;75.22;99308.94;5098433;28;19927;-81
2024/01/03 03:08:22;;;;;;;;;;;;;;;4.69;75.72;99312.09;5097913;28;19919;-81
2024/01/03 03:10:47;;;;;;;;;;;;;;;4.71;75.55;99312.75;5098110;28;20392;-81
2024/01/03 03:13:13;;;;;;;;;;;;;;;4.78;74.67;99313.00;5099001;28;19916;-81
2024/01/03 03:15:38;;;;;;;;;;;;;;;4.75;74.89;99324.56;5099886;28;19981;-81
2024/01/03 03:18:04;;;;;;;;;;;;;;;4.77;75.35;99324.44;5100804;28;19912;-81
2024/01/03 03:20:29;;;;;;;;;;;;;;;4.79;75.62;99325.09;5100718;28;20003;-81
2024/01/03 03:22:54;;;;;;;;;;;;;;;4.78;75.76;99313.81;5100302;28;19967;-81
2024/01/03 03:25:19;;;;;;;;;;;;;;;4.78;76.02;99313.81;5100208;28;19912;-81
2024/01/03 03:27:45;;;;;;;;;;;;;;;4.83;75.16;99309.94;5098625;28;19935;-81
2024/01/03 03:30:10;;;;;;;;;;;;;;;4.84;75.17;99298.50;5097194;28;19966;-81
2024/01/03 03:32:35;;;;;;;;;;;;;;;4.82;75.31;99308.28;5098964;28;19965;-81
2024/01/03 03:35:01;;;;;;;;;;;;;;;4.83;75.54;99326.47;5098568;28;19916;-82
2024/01/03 03:37:26;;;;;;;;;;;;;;;4.84;75.28;99329.91;5098258;28;19947;-81
2024/01/03 03:39:51;;;;;;;;;;;;;;;4.86;75.19;99330.56;5098059;28;19923;-81
2024/01/03 03:42:18;;;;;;;;;;;;;;;4.85;75.18;99329.75;5099465;28;19923;-81
2024/01/03 03:44:44;;;;;;;;;;;;;;;4.84;75.42;99322.03;5099243;28;19912;-81
2024/01/03 03:47:09;;;;;;;;;;;;;;;4.84;75.30;99325.50;5100906;28;19912;-81
2024/01/03 03:49:34;;;;;;;;;;;;;;;4.86;75.12;99328.78;5101126;28;19919;-81
2024/01/03 03:52:00;;;;;;;;;;;;;;;4.84;75.70;99330.72;5101350;28;19919;-81
2024/01/03 03:54:25;;;;;;;;;;;;;;;4.84;75.12;99328.09;5100597;28;19923;-81
2024/01/03 03:56:50;;;;;;;;;;;;;;;4.84;75.20;99325.50;5105005;28;19976;-81
2024/01/03 03:59:15;;;;;;;;;;;;;;;4.82;75.34;99322.19;5108203;28;19918;-81
2024/01/03 04:01:47;;;;;;;;;;;;;;;4.79;75.38;99328.53;5103052;28;19912;-81
2024/01/03 04:04:12;;;;;;;;;;;;;;;4.78;75.80;99328.69;5098465;28;19912;-81
2024/01/03 04:06:40;;;;;;;;;;;;;;;4.70;75.44;99328.59;5097677;28;19920;-81
2024/01/03 04:09:06;;;;;;;;;;;;;;;4.67;75.39;99324.47;5098786;28;19986;-82
2024/01/03 04:11:31;;;;;;;;;;;;;;;4.67;75.27;99313.19;5095842;28;20420;-81
2024/01/03 04:13:56;;;;;;;;;;;;;;;4.72;75.34;99313.59;5096965;28;19920;-81
2024/01/03 04:16:21;;;;;;;;;;;;;;;4.70;75.86;99307.69;5097576;28;19912;-81
2024/01/03 04:18:47;;;;;;;;;;;;;;;4.67;75.54;99307.97;5099771;28;19979;-81
2024/01/03 04:21:12;;;;;;;;;;;;;;;4.63;75.71;99298.78;5098623;28;19919;-80
2024/01/03 04:23:37;;;;;;;;;;;;;;;4.64;75.67;99310.88;5098205;28;19912;-81
2024/01/03 04:26:02;;;;;;;;;;;;;;;4.61;76.05;99296.31;5097599;28;19920;-81
2024/01/03 04:28:28;;;;;;;;;;;;;;;4.64;75.60;99293.41;5098467;28;19955;-81
2024/01/03 04:30:53;;;;;;;;;;;;;;;4.68;75.44;99293.91;5098969;28;19919;-81
2024/01/03 04:33:18;;;;;;;;;;;;;;;4.68;75.57;99307.00;5098904;28;19920;-81
2024/01/03 04:35:44;;;;;;;;;;;;;;;4.69;75.61;99308.66;5098521;28;19994;-81
2024/01/03 04:38:09;;;;;;;;;;;;;;;4.68;75.24;99309.63;5099128;28;19912;-81
2024/01/03 04:40:34;;;;;;;;;;;;;;;4.69;75.13;99306.84;5099097;28;20002;-81
2024/01/03 04:43:00;;;;;;;;;;;;;;;4.69;75.59;99308.66;5098606;28;19911;-81
2024/01/03 04:45:25;;;;;;;;;;;;;;;4.63;75.68;99311.84;5098590;28;19912;-81
2024/01/03 04:47:51;;;;;;;;;;;;;;;4.62;75.19;99316.25;5098377;28;19976;-81
2024/01/03 04:50:17;;;;;;;;;;;;;;;4.66;75.14;99314.16;5098459;28;19916;-81
2024/01/03 04:52:42;;;;;;;;;;;;;;;4.65;75.14;99302.88;5097348;28;20032;-80
2024/01/03 04:55:08;;;;;;;;;;;;;;;4.66;75.04;99301.09;5097749;28;20401;-81
2024/01/03 04:57:34;;;;;;;;;;;;;;;4.64;75.17;99305.66;5098515;28;20300;-81
2024/01/03 04:59:59;;;;;;;;;;;;;;;4.56;75.16;99309.00;5099426;28;19919;-81
2024/01/03 05:02:25;;;;;;;;;;;;;;;4.51;75.19;99311.22;5099372;28;19912;-81
2024/01/03 05:04:50;;;;;;;;;;;;;;;4.49;74.90;99321.00;5099459;28;19919;-81
2024/01/03 05:07:15;;;;;;;;;;;;;;;4.47;75.19;99326.38;5099192;28;19924;-81
2024/01/03 05:09:40;;;;;;;;;;;;;;;4.51;75.18;99331.31;5099069;28;19969;-80
2024/01/03 05:12:06;;;;;;;;;;;;;;;4.43;75.55;99338.06;5098206;28;19976;-81
2024/01/03 05:14:31;;;;;;;;;;;;;;;4.39;75.70;99330.63;5097223;28;19970;-81
2024/01/03 05:16:57;;;;;;;;;;;;;;;4.38;76.02;99335.03;5097648;28;19918;-81
2024/01/03 05:19:22;;;;;;;;;;;;;;;4.39;75.38;99338.47;5097639;28;19912;-81
2024/01/03 05:21:47;;;;;;;;;;;;;;;4.39;75.95;99339.31;5096330;28;19935;-81
2024/01/03 05:24:13;;;;;;;;;;;;;;;4.33;76.52;99344.28;5097099;28;20429;-81
2024/01/03 05:26:38;;;;;;;;;;;;;;;4.34;76.77;99331.06;5098468;28;19918;-81
2024/01/03 05:29:03;;;;;;;;;;;;;;;4.37;76.42;99317.72;5101238;28;19948;-81
2024/01/03 05:31:29;;;;;;;;;;;;;;;4.41;76.73;99318.25;5102606;28;19918;-81
2024/01/03 05:33:54;;;;;;;;;;;;;;;4.49;76.28;99318.38;5100592;28;19923;-81
2024/01/03 05:36:19;;;;;;;;;;;;;;;4.53;76.23;99318.91;5102088;28;19918;-81
2024/01/03 05:38:44;;;;;;;;;;;;;;;4.54;75.99;99323.19;5103271;28;19919;-81
2024/01/03 05:41:11;;;;;;;;;;;;;;;4.51;75.80;99307.78;5097566;28;19918;-81
2024/01/03 05:43:36;;;;;;;;;;;;;;;4.53;76.02;99304.06;5095947;28;19962;-81
2024/01/03 05:46:01;;;;;;;;;;;;;;;4.51;75.79;99298.16;5096261;28;19920;-81
2024/01/03 05:48:27;;;;;;;;;;;;;;;4.54;75.37;99304.88;5095866;28;19923;-81
2024/01/03 05:50:52;;;;;;;;;;;;;;;4.54;75.38;99316.16;5096668;28;19916;-81
2024/01/03 05:53:17;;;;;;;;;;;;;;;4.52;75.30;99312.88;5095899;28;19920;-81
2024/01/03 05:55:42;;;;;;;;;;;;;;;4.46;75.43;99324.72;5097802;28;20400;-81
2024/01/03 05:58:08;;;;;;;;;;;;;;;4.47;75.45;99328.97;5097220;28;19916;-81
2024/01/03 06:00:33;;;;;;;;;;;;;;;4.45;75.67;99330.88;5097502;28;19919;-80
2024/01/03 06:02:58;;;;;;;;;;;;;;;4.40;75.70;99320.03;5096383;28;19912;-81
2024/01/03 06:05:26;;;;;;;;;;;;;;;4.38;76.04;99308.09;5098004;28;19912;-81
2024/01/03 06:07:51;;;;;;;;;;;;;;;4.42;75.58;99305.03;5101793;28;19912;-80
2024/01/03 06:10:16;;;;;;;;;;;;;;;4.45;74.99;99289.06;5102002;28;19912;-81
2024/01/03 06:12:41;;;;;;;;;;;;;;;4.46;75.47;99285.50;5101859;28;19995;-81
2024/01/03 06:15:07;;;;;;;;;;;;;;;4.50;75.38;99280.81;5103120;28;20359;-81
2024/01/03 06:17:32;;;;;;;;;;;;;;;4.54;75.36;99283.97;5101135;28;19912;-81
2024/01/03 06:19:57;;;;;;;;;;;;;;;4.57;74.95;99291.50;5102711;28;19916;-81
2024/01/03 06:22:23;;;;;;;;;;;;;;;4.62;74.87;99307.59;5101996;28;19945;-81
2024/01/03 06:24:48;;;;;;;;;;;;;;;4.65;74.95;99328.22;5100823;28;19916;-81
2024/01/03 06:27:13;;;;;;;;;;;;;;;4.63;74.81;99332.75;5103432;28;19912;-81
2024/01/03 06:29:39;;;;;;;;;;;;;;;4.66;74.92;99311.56;5102023;28;19912;-81
2024/01/03 06:32:05;;;;;;;;;;;;;;;4.70;74.74;99287.56;5102946;28;20372;-81
2024/01/03 06:34:30;;;;;;;;;;;;;;;4.74;74.73;99309.84;5102937;28;19916;-81
2024/01/03 06:36:55;;;;;;;;;;;;;;;4.75;74.39;99298.41;5103365;28;19912;-81
2024/01/03 06:39:21;;;;;;;;;;;;;;;4.74;74.27;99296.78;5101320;28;19912;-81
2024/01/03 06:41:46;;;;;;;;;;;;;;;4.75;74.43;99308.06;5101509;28;19912;-81
2024/01/03 06:44:11;;;;;;;;;;;;;;;4.77;74.01;99300.88;5101111;28;19912;-81
2024/01/03 06:46:37;;;;;;;;;;;;;;;4.77;74.29;99306.13;5101259;28;20312;-81
2024/01/03 06:49:02;;;;;;;;;;;;;;;4.80;73.95;99321.53;5101933;28;19972;-81
2024/01/03 06:51:27;;;;;;;;;;;;;;;4.81;74.04;99325.78;5102804;28;20010;-81
2024/01/03 06:53:52;;;;;;;;;;;;;;;4.81;74.02;99324.97;5102203;28;19916;-80
2024/01/03 06:56:24;;;;;;;;;;;;;;;4.80;74.26;99342.44;5095722;28;19920;-81
2024/01/03 06:58:50;;;;;;;;;;;;;;;4.83;73.78;99338.72;5088173;28;19916;-81
2024/01/03 07:01:16;;;;;;;;;;;;;;;4.83;73.52;99310.75;5101756;28;20369;-81
2024/01/03 07:03:41;;;;;;;;;;;;;;;4.83;73.86;99315.16;5103086;28;19912;-81
2024/01/03 07:06:07;;;;;;;;;;;;;;;4.81;73.45;99323.16;5100249;28;19926;-81
2024/01/03 07:08:32;;;;;;;;;;;;;;;4.78;73.83;99328.69;5086561;28;19917;-81
2024/01/03 07:10:57;;;;;;;;;;;;;;;4.73;73.66;99321.28;5083093;28;20372;-81
2024/01/03 07:13:24;;;;;;;;;;;;;;;4.67;73.97;99319.25;5081721;28;19912;-81
2024/01/03 07:15:49;;;;;;;;;;;;;;;4.69;73.90;99330.38;5082331;28;19971;-81
2024/01/03 07:18:14;;;;;;;;;;;;;;;4.71;74.03;99343.31;5082468;28;19913;-81
2024/01/03 07:20:40;;;;;;;;;;;;;;;4.71;73.72;99348.53;5082284;28;19935;-81
2024/01/03 07:23:05;;;;;;;;;;;;;;;4.76;74.10;99356.78;5082935;28;19912;-81
2024/01/03 07:25:31;;;;;;;;;;;;;;;4.82;73.44;99358.81;5090617;28;19912;-81
2024/01/03 07:27:56;;;;;;;;;;;;;;;4.72;73.73;99344.97;5100281;28;19973;-81
2024/01/03 07:30:25;;;;;;;;;;;;;;;4.74;73.60;99341.22;5098246;28;19924;-81
2024/01/03 07:32:51;;;;;;;;;;;;;;;4.79;74.08;99340.78;5097142;28;19922;-81
2024/01/03 07:35:17;;;;;;;;;;;;;;;4.84;73.85;99324.66;5097846;28;19916;-81
2024/01/03 07:37:42;;;;;;;;;;;;;;;4.90;73.51;99314.44;5096292;28;19916;-82
2024/01/03 07:40:07;;;;;;;;;;;;;;;4.93;73.30;99305.47;5099785;28;20375;-81
2024/01/03 07:42:33;;;;;;;;;;;;;;;5.00;73.47;99319.59;5097391;28;19912;-82
2024/01/03 07:44:58;;;;;;;;;;;;;;;4.94;73.05;99320.19;5084475;28;19916;-82
2024/01/03 07:47:23;;;;;;;;;;;;;;;4.95;73.35;99340.97;5085229;28;19948;-81
2024/01/03 07:49:49;;;;;;;;;;;;;;;4.97;73.64;99343.44;5093779;28;19912;-82
2024/01/03 07:52:14;;;;;;;;;;;;;;;4.91;73.92;99342.25;5081310;28;20389;-81
2024/01/03 07:54:39;;;;;;;;;;;;;;;4.86;74.72;99347.09;5092691;28;19924;-81
2024/01/03 07:57:05;;;;;;;;;;;;;;;4.93;74.23;99345.53;5096567;28;19912;-81
2024/01/03 07:59:33;;;;;;;;;;;;;;;5.01;74.05;99350.84;5097793;28;19922;-81
2024/01/03 08:01:58;;;;;;;;;;;;;;;5.11;74.29;99340.31;5091915;28;19976;-82
2024/01/03 08:04:25;;;;;;;;;;;;;;;5.18;74.32;99335.31;5095845;28;20316;-82
2024/01/03 08:06:51;;;;;;;;;;;;;;;5.29;74.42;99335.94;5089761;28;19920;-83
2024/01/03 08:09:16;;;;;;;;;;;;;;;5.32;75.26;99313.88;5090953;28;20453;-81
2024/01/03 08:11:41;;;;;;;;;;;;;;;5.44;74.80;99302.22;5086009;28;19908;-82
2024/01/03 08:14:07;;;;;;;;;;;;;;;5.57;73.73;99279.06;5078406;28;19920;-83
2024/01/03 08:16:32;;;;;;;;;;;;;;;5.69;73.47;99269.16;5084534;28;20076;-82
2024/01/03 08:18:57;;;;;;;;;;;;;;;5.78;73.52;99273.47;5089603;28;20384;-81
2024/01/03 08:21:22;;;;;;;;;;;;;;;5.86;73.85;99284.00;5082938;28;19924;-81
2024/01/03 08:23:48;;;;;;;;;;;;;;;5.96;73.48;99270.88;5093478;28;19912;-81
2024/01/03 08:26:13;;;;;;;;;;;;;;;6.03;73.47;99266.66;5089689;28;19916;-81
2024/01/03 08:28:42;;;;;;;;;;;;;;;6.10;73.07;99265.06;5092445;28;20000;-82
2024/01/03 08:31:17;;;;;;;;;;;;;;;6.11;73.63;99250.97;5090796;28;20372;-82
2024/01/03 08:33:43;;;;;;;;;;;;;;;6.16;73.29;99256.56;5088988;28;19951;-83
2024/01/03 08:36:10;;;;;;;;;;;;;;;6.21;73.03;99266.56;5085114;28;19970;-81
2024/01/03 08:38:36;;;;;;;;;;;;;;;6.24;72.92;99267.09;5090199;28;19923;-82
2024/01/03 08:41:01;;;;;;;;;;;;;;;6.29;73.05;99256.94;5089083;28;19916;-82
2024/01/03 08:43:26;;;;;;;;;;;;;;;6.35;72.97;99261.56;5090450;28;20304;-82
2024/01/03 08:45:51;;;;;;;;;;;;;;;6.42;73.06;99242.56;5092246;28;19931;-82
2024/01/03 08:48:17;;;;;;;;;;;;;;;6.46;73.10;99243.88;5091710;28;20404;-83
2024/01/03 08:50:43;;;;;;;;;;;;;;;6.53;73.18;99239.66;5091824;28;19916;-81
2024/01/03 08:53:08;;;;;;;;;;;;;;;6.60;72.71;99241.47;5090372;28;19920;-82
2024/01/03 08:55:33;;;;;;;;;;;;;;;6.68;72.44;99235.44;5088012;28;20364;-82
2024/01/03 08:57:59;;;;;;;;;;;;;;;6.76;72.36;99226.78;5072064;28;19917;-81
2024/01/03 09:00:24;;;;;;;;;;;;;;;6.84;72.93;99232.03;5072052;28;19916;-83
2024/01/03 09:02:50;;;;;;;;;;;;;;;6.89;72.34;99235.81;5075163;28;20356;-83
2024/01/03 09:05:15;;;;;;;;;;;;;;;6.92;72.54;99245.19;5089652;28;19920;-84
2024/01/03 09:07:43;;;;;;;;;;;;;;;6.91;72.42;99243.53;5089567;28;19927;-81
2024/01/03 09:10:09;;;;;;;;;;;;;;;6.91;72.98;99244.34;5092235;28;19923;-84
2024/01/03 09:12:34;;;;;;;;;;;;;;;6.93;72.28;99228.44;5092302;28;19912;-84
2024/01/03 09:14:59;;;;;;;;;;;;;;;6.94;72.99;99225.66;5091756;28;20313;-84
2024/01/03 09:17:24;;;;;;;;;;;;;;;6.95;72.50;99218.59;5091181;28;19989;-81
2024/01/03 09:19:50;;;;;;;;;;;;;;;6.93;72.34;99221.41;5085898;28;20419;-82
2024/01/03 09:22:16;;;;;;;;;;;;;;;6.95;72.74;99205.50;5089259;28;20006;-81
2024/01/03 09:24:41;;;;;;;;;;;;;;;7.01;72.60;99194.34;5087960;28;20373;-81
2024/01/03 09:27:07;;;;;;;;;;;;;;;7.07;72.29;99184.97;5088883;28;19916;-83
2024/01/03 09:29:32;;;;;;;;;;;;;;;7.17;72.68;99186.44;5090471;28;19981;-84
2024/01/03 09:31:58;;;;;;;;;;;;;;;7.22;73.10;99191.22;5089659;28;20381;-83
2024/01/03 09:34:24;;;;;;;;;;;;;;;7.25;72.31;99193.50;5083873;28;20019;-83
2024/01/03 09:36:49;;;;;;;;;;;;;;;7.30;72.34;99180.69;5091933;28;19978;-82
2024/01/03 09:39:16;;;;;;;;;;;;;;;7.34;72.13;99182.81;5088461;28;19972;-82
2024/01/03 09:41:41;;;;;;;;;;;;;;;7.41;72.54;99169.03;5089959;28;20320;-84
2024/01/03 09:44:08;;;;;;;;;;;;;;;7.42;72.32;99163.59;5087196;28;19916;-84
2024/01/03 09:46:34;;;;;;;;;;;;;;;7.45;72.76;99168.56;5091054;28;19923;-83
2024/01/03 09:48:59;;;;;;;;;;;;;;;7.48;72.32;99162.16;5085844;28;20377;-84
2024/01/03 09:51:24;;;;;;;;;;;;;;;7.47;72.51;99171.03;5085866;28;20424;-85
2024/01/03 09:53:51;;;;;;;;;;;;;;;7.46;71.91;99170.19;5088321;28;19920;-85
2024/01/03 09:56:16;;;;;;;;;;;;;;;7.44;72.72;99160.84;5088668;28;20003;-85
2024/01/03 09:58:42;;;;;;;;;;;;;;;7.44;72.60;99139.84;5089610;28;20428;-84
2024/01/03 10:01:08;;;;;;;;;;;;;;;7.41;72.78;99133.06;5081688;28;19924;-85
2024/01/03 10:03:33;;;;;;;;;;;;;;;7.38;72.59;99128.16;5077734;28;19935;-83
2024/01/03 10:06:12;;;;;;;;;;;;;;;7.36;72.90;99126.69;5091115;28;20377;-84
2024/01/03 10:08:37;;;;;;;;;;;;;;;7.32;72.47;99131.47;5082677;28;20019;-84
2024/01/03 10:11:18;;;;;;;;;;;;;;;7.29;73.12;99144.94;5080228;28;19916;-83
2024/01/03 10:13:43;;;;;;;;;;;;;;;7.27;73.09;99152.97;5083115;28;19948;-84
2024/01/03 10:16:08;;;;;;;;;;;;;;;7.24;73.14;99153.31;5087699;28;19923;-84
2024/01/03 10:18:33;;;;;;;;;;;;;;;7.23;73.14;99151.66;5080078;28;19970;-83
2024/01/03 10:21:12;;;;;;;;;;;;;;;7.23;72.45;99135.09;5089688;28;19923;-83
2024/01/03 10:23:38;;;;;;;;;;;;;;;7.24;74.63;99140.16;5078224;28;20467;-83
2024/01/03 10:26:03;;;;;;;;;;;;;;;7.30;74.56;99120.31;5069826;28;19908;-83
2024/01/03 10:28:28;;;;;;;;;;;;;;;7.32;74.46;99126.22;5074089;28;20057;-83
2024/01/03 10:30:54;;;;;;;;;;;;;;;7.36;74.05;99127.50;5086017;28;19916;-81
2024/01/03 10:33:20;;;;;;;;;;;;;;;7.39;74.12;99116.66;5087445;28;19985;-82
2024/01/03 10:35:46;;;;;;;;;;;;;;;7.46;74.08;99104.53;5088874;28;19920;-81
2024/01/03 10:38:13;;;;;;;;;;;;;;;7.49;74.30;99106.81;5078993;28;20021;-81
2024/01/03 10:40:41;;;;;;;;;;;;;;;7.48;74.85;99097.31;5087776;28;19923;-82
2024/01/03 10:43:10;;;;;;;;;;;;;;;7.50;74.59;99095.31;5089723;28;19912;-81
2024/01/03 10:45:35;;;;;;;;;;;;;;;7.50;74.82;99087.44;5087097;28;19923;-82
2024/01/03 10:48:01;;;;;;;;;;;;;;;7.52;75.10;99084.66;5090024;28;19938;-81
2024/01/03 10:50:28;;;;;;;;;;;;;;;7.50;74.04;99094.50;5091375;28;19918;-83
2024/01/03 10:52:57;;;;;;;;;;;;;;;7.48;75.23;99086.78;5094870;28;20443;-82
2024/01/03 10:55:26;;;;;;;;;;;;;;;7.46;74.71;99070.38;5091948;28;19988;-82
2024/01/03 10:58:02;;;;;;;;;;;;;;;7.46;74.14;99072.19;5079259;28;20385;-83
2024/01/03 11:00:30;;;;;;;;;;;;;;;7.47;74.64;99074.66;5086108;28;19924;-82
2024/01/03 11:03:04;;;;;;;;;;;;;;;7.50;74.56;99084.81;5092902;28;20502;-81
2024/01/03 11:05:33;;;;;;;;;;;;;;;7.55;74.35;99077.25;5093342;28;19965;-82
2024/01/03 11:08:06;;;;;;;;;;;;;;;7.54;74.36;99072.97;5090889;28;19931;-83
2024/01/03 11:10:48;;;;;;;;;;;;;;;7.54;74.30;99069.53;5090055;28;19916;-83
2024/01/03 11:13:26;;;;;;;;;;;;;;;7.48;74.90;99068.41;5089910;28;19923;-81
2024/01/03 11:15:53;;;;;;;;;;;;;;;7.48;74.49;99057.91;5090382;28;19941;-81
2024/01/03 11:18:37;;;;;;;;;;;;;;;7.48;74.45;99057.91;5089536;28;19995;-83
2024/01/03 11:21:28;;;;;;;;;;;;;;;7.45;74.57;99055.63;5091988;28;19923;-81
2024/01/03 11:23:54;;;;;;;;;;;;;;;7.45;74.19;99049.53;5085058;28;19926;-82
2024/01/03 11:26:19;;;;;;;;;;;;;;;7.44;74.42;99040.03;5093154;28;19919;-83
2024/01/03 11:28:48;;;;;;;;;;;;;;;7.43;74.86;99041.84;5086482;28;20332;-81
2024/01/03 11:31:13;;;;;;;;;;;;;;;7.45;74.53;99029.34;5093689;28;19916;-81
2024/01/03 11:33:39;;;;;;;;;;;;;;;7.50;73.93;99034.91;5091471;28;20328;-82
2024/01/03 11:36:05;;;;;;;;;;;;;;;7.53;74.42;99039.00;5090258;28;19916;-82
2024/01/03 11:38:40;;;;;;;;;;;;;;;7.55;74.05;99043.09;5091081;28;20025;-82
2024/01/03 11:41:06;;;;;;;;;;;;;;;7.56;74.12;99044.72;5093991;28;19919;-82
2024/01/03 11:43:31;;;;;;;;;;;;;;;7.53;74.36;99039.00;5085687;28;20366;-81
2024/01/03 11:46:12;;;;;;;;;;;;;;;7.51;74.45;99038.34;5090585;28;19921;-82
2024/01/03 11:48:38;;;;;;;;;;;;;;;7.49;75.10;99028.03;5090727;28;19923;-82
2024/01/03 11:51:23;;;;;;;;;;;;;;;7.48;74.84;99018.50;5087847;28;20014;-82
2024/01/03 11:53:49;;;;;;;;;;;;;;;7.50;75.06;99023.59;5090433;28;19916;-82
2024/01/03 11:56:27;;;;;;;;;;;;;;;7.54;74.27;99024.88;5092098;28;19912;-83
2024/01/03 11:58:53;;;;;;;;;;;;;;;7.56;74.80;99021.09;5092101;28;20365;-80
2024/01/03 12:01:18;;;;;;;;;;;;;;;7.62;74.21;99024.84;5091155;28;19934;-80
2024/01/03 12:03:44;;;;;;;;;;;;;;;7.61;73.90;99031.91;5093177;28;19912;-83
2024/01/03 12:06:09;;;;;;;;;;;;;;;7.58;74.59;99027.00;5093274;28;19924;-84
2024/01/03 12:08:35;;;;;;;;;;;;;;;7.57;74.96;99024.53;5091552;28;19916;-81
2024/01/03 12:11:00;;;;;;;;;;;;;;;7.58;75.10;99021.75;5078468;28;19916;-82
2024/01/03 12:13:25;;;;;;;;;;;;;;;7.60;74.88;99018.94;5088050;28;19956;-81
2024/01/03 12:15:58;;;;;;;;;;;;;;;7.60;74.96;99021.56;5090084;28;20324;-81
2024/01/03 12:18:25;;;;;;;;;;;;;;;7.61;74.63;99026.66;5091246;28;19916;-82
2024/01/03 12:20:51;;;;;;;;;;;;;;;7.63;74.65;99029.09;5090385;28;19927;-81
2024/01/03 12:23:19;;;;;;;;;;;;;;;7.61;74.55;99039.78;5090260;28;20386;-81
2024/01/03 12:25:45;;;;;;;;;;;;;;;7.63;74.73;99044.88;5088146;28;19920;-82
2024/01/03 12:28:13;;;;;;;;;;;;;;;7.64;74.10;99049.13;5091615;28;19915;-80
2024/01/03 12:30:38;;;;;;;;;;;;;;;7.63;74.70;99050.94;5091561;28;19912;-81
2024/01/03 12:33:08;;;;;;;;;;;;;;;7.61;74.89;99058.19;5092852;28;19912;-81
2024/01/03 12:35:34;;;;;;;;;;;;;;;7.62;74.85;99072.13;5091442;28;19955;-82
2024/01/03 12:37:59;;;;;;;;;;;;;;;7.59;75.00;99067.22;5092581;28;19919;-81
2024/01/03 12:40:24;;;;;;;;;;;;;;;7.57;74.91;99077.09;5088771;28;20385;-80
2024/01/03 12:42:50;;;;;;;;;;;;;;;7.55;75.18;99066.75;5091730;28;19916;-81
2024/01/03 12:45:15;;;;;;;;;;;;;;;7.48;74.72;99063.16;5092579;28;20416;-83
2024/01/03 12:47:40;;;;;;;;;;;;;;;7.47;74.92;99063.31;5090557;28;19919;-82
2024/01/03 12:50:07;;;;;;;;;;;;;;;7.42;75.23;99066.44;5090453;28;19999;-82
2024/01/03 12:52:34;;;;;;;;;;;;;;;7.42;75.26;99074.31;5089120;28;19924;-80